createdAt,value
2022-11-24T00:02:15.124Z,7.08
2022-11-24T00:04:41.825Z,7.08
2022-11-24T00:07:08.586Z,7.06
2022-11-24T00:09:35.108Z,7.06
2022-11-24T00:12:01.643Z,7.03
2022-11-24T00:14:28.420Z,7.00
2022-11-24T00:16:56.541Z,6.99
2022-11-24T00:19:23.391Z,6.97
2022-11-24T00:21:49.895Z,6.96
2022-11-24T00:24:16.629Z,6.95
2022-11-24T00:26:43.343Z,6.93
2022-11-24T00:29:11.221Z,6.91
2022-11-24T00:31:39.161Z,6.87
2022-11-24T00:34:09.798Z,6.85
2022-11-24T00:36:36.896Z,6.85
2022-11-24T00:39:05.270Z,6.85
2022-11-24T00:41:32.413Z,6.84
2022-11-24T00:43:59.357Z,6.84
2022-11-24T00:46:26.628Z,6.79
2022-11-24T00:48:54.175Z,6.77
2022-11-24T00:51:22.831Z,6.75
2022-11-24T00:53:49.481Z,6.74
2022-11-24T00:56:16.681Z,6.72
2022-11-24T00:58:43.475Z,6.70
2022-11-24T01:01:11.273Z,6.68
2022-11-24T01:03:37.915Z,6.67
2022-11-24T01:06:05.182Z,6.65
2022-11-24T01:08:33.599Z,6.64
2022-11-24T01:11:07.128Z,6.62
2022-11-24T01:13:33.718Z,6.63
2022-11-24T01:16:00.459Z,6.65
2022-11-24T01:18:27.045Z,6.63
2022-11-24T01:20:53.595Z,6.62
2022-11-24T01:23:20.155Z,6.64
2022-11-24T01:25:48.318Z,6.65
2022-11-24T01:28:15.536Z,6.67
2022-11-24T01:30:42.117Z,6.68
2022-11-24T01:33:08.802Z,6.68
2022-11-24T01:35:36.317Z,6.71
2022-11-24T01:38:02.881Z,6.72
2022-11-24T01:40:29.530Z,6.72
2022-11-24T01:42:57.683Z,6.77
2022-11-24T01:45:28.543Z,6.81
2022-11-24T01:47:55.550Z,6.82
2022-11-24T01:50:22.604Z,6.87
2022-11-24T01:52:52.457Z,6.88
2022-11-24T01:55:21.268Z,6.93
2022-11-24T01:57:50.216Z,6.97
2022-11-24T02:00:19.308Z,6.97
2022-11-24T02:02:45.971Z,7.01
2022-11-24T02:05:16.059Z,7.02
2022-11-24T02:07:43.102Z,7.03
2022-11-24T02:10:12.333Z,7.03
2022-11-24T02:12:39.787Z,7.04
2022-11-24T02:15:07.853Z,7.04
2022-11-24T02:17:35.985Z,7.03
2022-11-24T02:20:04.476Z,7.08
2022-11-24T02:22:35.463Z,7.09
2022-11-24T02:25:07.055Z,7.09
2022-11-24T02:27:35.651Z,7.09
2022-11-24T02:30:02.197Z,7.07
2022-11-24T02:32:31.012Z,7.06
2022-11-24T02:35:01.489Z,7.05
2022-11-24T02:37:28.187Z,7.04
2022-11-24T02:39:55.011Z,7.06
2022-11-24T02:42:22.014Z,7.07
2022-11-24T02:44:53.535Z,7.04
2022-11-24T02:47:20.234Z,7.04
2022-11-24T02:49:46.742Z,7.06
2022-11-24T02:52:14.125Z,7.05
2022-11-24T02:54:40.825Z,7.07
2022-11-24T02:57:07.598Z,7.05
2022-11-24T02:59:34.419Z,7.05
2022-11-24T03:02:02.955Z,7.04
2022-11-24T03:04:29.617Z,7.03
2022-11-24T03:06:58.269Z,7.03
2022-11-24T03:09:25.018Z,7.05
2022-11-24T03:11:51.581Z,7.06
2022-11-24T03:14:18.226Z,7.07
2022-11-24T03:16:45.013Z,7.07
2022-11-24T03:19:13.296Z,7.07
2022-11-24T03:21:39.988Z,7.07
2022-11-24T03:24:06.700Z,7.07
2022-11-24T03:26:35.706Z,7.08
2022-11-24T03:29:02.430Z,7.07
2022-11-24T03:31:29.010Z,7.04
2022-11-24T03:33:55.650Z,7.04
2022-11-24T03:36:23.705Z,7.05
2022-11-24T03:38:50.190Z,7.05
2022-11-24T03:41:17.149Z,7.05
2022-11-24T03:43:44.446Z,7.07
2022-11-24T03:46:11.227Z,7.08
2022-11-24T03:48:37.867Z,7.09
2022-11-24T03:51:04.634Z,7.08
2022-11-24T03:53:33.721Z,7.06
2022-11-24T03:56:00.431Z,7.08
2022-11-24T03:58:26.937Z,7.07
2022-11-24T04:00:54.085Z,7.06
2022-11-24T04:03:21.110Z,7.03
2022-11-24T04:05:47.924Z,7.01
2022-11-24T04:08:14.814Z,6.95
2022-11-24T04:10:43.063Z,6.89
2022-11-24T04:13:11.599Z,6.79
2022-11-24T04:15:39.030Z,6.73
2022-11-24T04:18:05.816Z,6.69
2022-11-24T04:20:32.642Z,6.63
2022-11-24T04:22:59.170Z,6.59
2022-11-24T04:25:25.856Z,6.56
2022-11-24T04:27:54.984Z,6.52
2022-11-24T04:30:22.679Z,6.50
2022-11-24T04:32:49.200Z,6.50
2022-11-24T04:35:15.706Z,6.51
2022-11-24T04:37:42.185Z,6.53
2022-11-24T04:40:10.042Z,6.54
2022-11-24T04:42:36.609Z,6.56
2022-11-24T04:45:05.207Z,6.60
2022-11-24T04:47:32.089Z,6.65
2022-11-24T04:49:58.636Z,6.63
2022-11-24T04:52:25.417Z,6.62
2022-11-24T04:54:52.259Z,6.65
2022-11-24T04:57:19.786Z,6.69
2022-11-24T04:59:46.497Z,6.67
2022-11-24T05:02:14.504Z,6.68
2022-11-24T05:04:41.203Z,6.66
2022-11-24T05:07:16.482Z,6.67
2022-11-24T05:10:03.323Z,6.66
2022-11-24T05:12:31.246Z,6.67
2022-11-24T05:14:58.217Z,6.69
2022-11-24T05:17:28.104Z,6.71
2022-11-24T05:19:54.750Z,6.73
2022-11-24T05:22:21.266Z,6.74
2022-11-24T05:24:47.723Z,6.76
2022-11-24T05:27:14.214Z,6.79
2022-11-24T05:29:40.681Z,6.81
2022-11-24T05:32:07.409Z,6.80
2022-11-24T05:34:35.474Z,6.81
2022-11-24T05:37:03.485Z,6.82
2022-11-24T05:39:31.202Z,6.86
2022-11-24T05:41:57.719Z,6.88
2022-11-24T05:44:24.196Z,6.87
2022-11-24T05:46:51.174Z,6.87
2022-11-24T05:49:17.829Z,6.88
2022-11-24T05:51:45.873Z,6.85
2022-11-24T05:54:12.349Z,6.82
2022-11-24T05:56:38.826Z,6.81
2022-11-24T05:59:09.623Z,6.79
2022-11-24T06:01:36.655Z,6.81
2022-11-24T06:04:03.439Z,6.81
2022-11-24T06:06:29.953Z,6.82
2022-11-24T06:08:58.594Z,6.81
2022-11-24T06:11:25.152Z,6.79
2022-11-24T06:13:51.761Z,6.75
2022-11-24T06:16:19.665Z,6.68
2022-11-24T06:18:46.419Z,6.62
2022-11-24T06:21:12.982Z,6.52
2022-11-24T06:23:39.656Z,6.47
2022-11-24T06:26:07.787Z,6.40
2022-11-24T06:28:34.303Z,6.30
2022-11-24T06:31:01.640Z,6.18
2022-11-24T06:33:30.318Z,6.07
2022-11-24T06:35:59.065Z,5.98
2022-11-24T06:38:25.584Z,5.91
2022-11-24T06:40:58.022Z,5.85
2022-11-24T06:43:26.159Z,5.84
2022-11-24T06:45:52.728Z,5.82
2022-11-24T06:48:19.270Z,5.80
2022-11-24T06:50:45.759Z,5.75
2022-11-24T06:53:12.601Z,5.68
2022-11-24T06:55:39.537Z,5.60
2022-11-24T06:58:06.300Z,5.49
2022-11-24T07:00:34.194Z,5.41
2022-11-24T07:03:01.058Z,5.32
2022-11-24T07:05:27.726Z,5.28
2022-11-24T07:07:54.302Z,5.26
2022-11-24T07:10:20.935Z,5.24
2022-11-24T07:12:47.430Z,5.23
2022-11-24T07:15:14.278Z,5.19
2022-11-24T07:17:42.220Z,5.17
2022-11-24T07:20:09.354Z,5.18
2022-11-24T07:22:35.837Z,5.21
2022-11-24T07:25:02.758Z,5.23
2022-11-24T07:27:30.196Z,5.26
2022-11-24T07:29:56.673Z,5.34
2022-11-24T07:32:23.206Z,5.46
2022-11-24T07:34:51.062Z,5.59
2022-11-24T07:37:17.563Z,5.64
2022-11-24T07:39:44.024Z,5.75
2022-11-24T07:42:11.393Z,5.89
2022-11-24T07:44:37.902Z,6.02
2022-11-24T07:47:04.394Z,6.21
2022-11-24T07:49:30.873Z,6.36
2022-11-24T07:51:58.782Z,6.55
2022-11-24T07:54:25.269Z,6.76
2022-11-24T07:56:51.729Z,7.01
2022-11-24T07:59:18.615Z,7.23
2022-11-24T08:01:45.271Z,7.41
2022-11-24T08:04:11.957Z,7.63
2022-11-24T08:06:44.654Z,7.87
2022-11-24T08:09:15.152Z,8.09
2022-11-24T08:11:41.657Z,8.30
2022-11-24T08:14:08.196Z,8.53
2022-11-24T08:16:34.709Z,8.79
2022-11-24T08:19:01.296Z,9.10
2022-11-24T08:21:27.844Z,9.46
2022-11-24T08:23:55.025Z,9.80
2022-11-24T08:26:24.718Z,10.11
2022-11-24T08:28:53.453Z,10.43
2022-11-24T08:31:20.011Z,10.70
2022-11-24T08:33:47.007Z,10.87
2022-11-24T08:36:14.402Z,10.74
2022-11-24T08:38:41.195Z,10.52
2022-11-24T08:41:11.523Z,10.33
2022-11-24T08:43:39.573Z,10.14
2022-11-24T08:46:08.380Z,9.98
2022-11-24T08:48:35.399Z,9.77
2022-11-24T08:51:07.027Z,9.65
2022-11-24T08:53:33.672Z,9.57
2022-11-24T08:56:00.569Z,9.53
2022-11-24T08:58:27.782Z,9.50
2022-11-24T09:00:55.774Z,9.49
2022-11-24T09:03:22.264Z,9.53
2022-11-24T09:05:52.892Z,9.64
2022-11-24T09:08:20.667Z,9.72
2022-11-24T09:10:47.213Z,9.79
2022-11-24T09:13:13.840Z,9.82
2022-11-24T09:15:40.504Z,9.77
2022-11-24T09:18:08.602Z,9.72
2022-11-24T09:20:35.103Z,9.70
2022-11-24T09:23:01.632Z,9.72
2022-11-24T09:25:28.098Z,9.68
2022-11-24T09:27:54.937Z,9.64
2022-11-24T09:30:21.544Z,9.61
2022-11-24T09:32:48.110Z,9.60
2022-11-24T09:35:16.452Z,9.55
2022-11-24T09:37:44.748Z,9.50
2022-11-24T09:40:13.121Z,9.47
2022-11-24T09:42:43.298Z,9.41
2022-11-24T09:45:35.384Z,9.40
2022-11-24T09:48:10.935Z,9.33
2022-11-24T09:50:39.089Z,9.25
2022-11-24T09:53:08.851Z,9.21
2022-11-24T09:55:38.430Z,9.13
2022-11-24T09:58:22.913Z,9.06
2022-11-24T10:00:51.796Z,8.94
2022-11-24T10:03:20.802Z,8.87
2022-11-24T10:05:50.649Z,8.81
2022-11-24T10:08:23.942Z,8.77
2022-11-24T10:10:54.846Z,8.75
2022-11-24T10:13:28.244Z,8.69
2022-11-24T10:15:58.753Z,8.66
2022-11-24T10:18:49.296Z,8.63
2022-11-24T10:21:30.890Z,8.59
2022-11-24T10:24:08.829Z,8.54
2022-11-24T10:26:36.384Z,8.55
2022-11-24T10:29:08.835Z,8.56
2022-11-24T10:31:36.026Z,8.56
2022-11-24T10:34:04.331Z,8.55
2022-11-24T10:36:40.069Z,8.60
2022-11-24T10:39:13.496Z,8.69
2022-11-24T10:41:46.006Z,8.75
2022-11-24T10:44:13.940Z,8.79
2022-11-24T10:46:40.839Z,8.86
2022-11-24T10:49:07.338Z,8.91
2022-11-24T10:51:41.372Z,8.94
2022-11-24T10:54:12.728Z,8.92
2022-11-24T10:56:40.144Z,8.95
2022-11-24T10:59:29.083Z,9.03
2022-11-24T11:01:55.875Z,9.12
2022-11-24T11:04:25.621Z,9.22
2022-11-24T11:07:06.522Z,9.29
2022-11-24T11:09:33.232Z,9.33
2022-11-24T11:12:28.029Z,9.35
2022-11-24T11:14:55.246Z,9.37
2022-11-24T11:17:33.451Z,9.38
2022-11-24T11:20:02.725Z,9.35
2022-11-24T11:22:32.275Z,9.37
2022-11-24T11:25:04.329Z,9.31
2022-11-24T11:27:30.856Z,9.13
2022-11-24T11:35:50.102Z,8.90
2022-11-24T11:38:19.163Z,8.88
2022-11-24T11:43:38.173Z,9.05
2022-11-24T11:46:06.079Z,9.29
2022-11-24T11:48:42.765Z,9.54
2022-11-24T11:51:23.689Z,9.54
2022-11-24T11:53:57.233Z,9.49
2022-11-24T11:56:25.222Z,9.41
2022-11-24T11:59:00.488Z,9.42
2022-11-24T12:01:40.343Z,9.40
2022-11-24T12:04:16.148Z,9.34
2022-11-24T12:06:56.674Z,9.27
2022-11-24T12:09:30.358Z,9.18
2022-11-24T12:12:08.680Z,9.11
2022-11-24T12:14:41.537Z,9.11
2022-11-24T12:17:12.020Z,9.11
2022-11-24T12:19:44.751Z,9.16
2022-11-24T12:22:17.406Z,9.30
2022-11-24T12:24:50.708Z,9.45
2022-11-24T12:27:23.285Z,9.55
2022-11-24T12:29:55.889Z,9.48
2022-11-24T12:32:32.750Z,9.49
2022-11-24T12:35:04.178Z,9.54
2022-11-24T12:37:40.386Z,9.54
2022-11-24T12:40:13.526Z,9.51
2022-11-24T12:42:45.715Z,9.47
2022-11-24T12:45:15.498Z,9.62
2022-11-24T12:47:47.215Z,9.85
2022-11-24T12:50:17.710Z,9.77
2022-11-24T12:52:55.611Z,9.76
2022-11-24T12:55:28.620Z,9.82
2022-11-24T12:57:59.526Z,10.02
2022-11-24T13:00:30.303Z,10.19
2022-11-24T13:03:05.055Z,10.23
2022-11-24T13:08:18.002Z,10.21
2022-11-24T13:21:58.893Z,9.83
2022-11-24T13:24:26.296Z,9.77
2022-11-24T13:27:16.041Z,9.74
2022-11-24T13:44:28.032Z,9.68
2022-11-24T13:49:58.100Z,9.62
2022-11-24T13:55:46.504Z,9.46
2022-11-24T14:01:18.087Z,9.35
2022-11-24T14:14:49.155Z,9.17
2022-11-24T14:26:29.391Z,9.13
2022-11-24T14:29:06.133Z,9.15
2022-11-24T14:31:33.678Z,9.12
2022-11-24T14:34:16.557Z,9.07
2022-11-24T14:36:44.285Z,9.04
2022-11-24T14:39:25.557Z,9.03
2022-11-24T14:41:55.258Z,9.05
2022-11-24T14:44:31.997Z,9.02
2022-11-24T14:49:47.037Z,8.96
2022-11-24T14:52:16.313Z,8.95
2022-11-24T14:55:07.515Z,8.96
2022-11-24T15:08:47.518Z,8.88
2022-11-24T15:11:14.620Z,8.90
2022-11-24T15:25:32.750Z,8.69
2022-11-24T15:33:31.893Z,8.60
2022-11-24T23:47:00.503Z,1.51
2022-11-24T23:55:15.288Z,1.59
